sensor_id;sensor_type;location;lat;lon;timestamp;pressure;altitude;pressure_sealevel;temperature;humidity
706;BME280;21234;48.690;9.016;2023-06-22T00:01:16;96193.63;;;19.85;100.00
706;BME280;21234;48.690;9.016;2023-06-22T00:03:43;96197.22;;;19.85;100.00
706;BME280;21234;48.690;9.016;2023-06-22T00:06:09;96188.00;;;19.90;100.00
706;BME280;21234;48.690;9.016;2023-06-22T00:08:36;96182.81;;;19.88;100.00
706;BME280;21234;48.690;9.016;2023-06-22T00:11:03;96200.56;;;19.96;100.00
706;BME280;21234;48.690;9.016;2023-06-22T00:13:31;96195.75;;;20.01;100.00
706;BME280;21234;48.690;9.016;2023-06-22T00:15:58;96204.94;;;19.97;100.00
706;BME280;21234;48.690;9.016;2023-06-22T00:18:24;96199.13;;;19.98;100.00
706;BME280;21234;48.690;9.016;2023-06-22T00:20:55;96202.69;;;19.99;100.00
706;BME280;21234;48.690;9.016;2023-06-22T00:23:24;96212.41;;;19.96;100.00
706;BME280;21234;48.690;9.016;2023-06-22T00:25:51;96198.63;;;19.96;100.00
706;BME280;21234;48.690;9.016;2023-06-22T00:28:18;96193.41;;;19.95;100.00
706;BME280;21234;48.690;9.016;2023-06-22T00:30:46;96190.53;;;20.00;100.00
706;BME280;21234;48.690;9.016;2023-06-22T00:33:13;96181.13;;;20.01;100.00
706;BME280;21234;48.690;9.016;2023-06-22T00:35:41;96185.13;;;19.95;100.00
706;BME280;21234;48.690;9.016;2023-06-22T00:38:08;96194.34;;;19.90;100.00
706;BME280;21234;48.690;9.016;2023-06-22T00:40:34;96189.44;;;19.87;100.00
706;BME280;21234;48.690;9.016;2023-06-22T00:43:01;96184.75;;;19.88;100.00
706;BME280;21234;48.690;9.016;2023-06-22T00:45:28;96198.84;;;19.86;100.00
706;BME280;21234;48.690;9.016;2023-06-22T00:47:57;96211.50;;;19.87;100.00
706;BME280;21234;48.690;9.016;2023-06-22T00:50:26;96205.63;;;19.80;100.00
706;BME280;21234;48.690;9.016;2023-06-22T00:52:55;96203.19;;;19.78;100.00
706;BME280;21234;48.690;9.016;2023-06-22T00:55:24;96217.28;;;19.77;100.00
706;BME280;21234;48.690;9.016;2023-06-22T00:57:52;96249.34;;;19.73;100.00
706;BME280;21234;48.690;9.016;2023-06-22T01:00:22;96260.38;;;19.73;100.00
706;BME280;21234;48.690;9.016;2023-06-22T01:02:50;96234.44;;;19.74;100.00
706;BME280;21234;48.690;9.016;2023-06-22T01:05:19;96239.97;;;19.74;100.00
706;BME280;21234;48.690;9.016;2023-06-22T01:07:55;96248.44;;;19.64;100.00
706;BME280;21234;48.690;9.016;2023-06-22T01:10:27;96257.84;;;19.49;100.00
706;BME280;21234;48.690;9.016;2023-06-22T01:13:06;96239.88;;;19.52;100.00
706;BME280;21234;48.690;9.016;2023-06-22T01:15:37;96203.00;;;19.48;100.00
706;BME280;21234;48.690;9.016;2023-06-22T01:18:08;96196.47;;;19.43;100.00
706;BME280;21234;48.690;9.016;2023-06-22T01:20:37;96212.50;;;19.41;100.00
706;BME280;21234;48.690;9.016;2023-06-22T01:23:11;96212.50;;;19.41;100.00
706;BME280;21234;48.690;9.016;2023-06-22T01:25:46;96199.44;;;19.47;100.00
706;BME280;21234;48.690;9.016;2023-06-22T01:28:39;96193.72;;;19.43;100.00
706;BME280;21234;48.690;9.016;2023-06-22T01:31:08;96197.19;;;19.35;100.00
706;BME280;21234;48.690;9.016;2023-06-22T01:33:37;96198.94;;;19.31;100.00
706;BME280;21234;48.690;9.016;2023-06-22T01:36:06;96199.53;;;19.28;100.00
706;BME280;21234;48.690;9.016;2023-06-22T01:38:34;96196.38;;;19.21;100.00
706;BME280;21234;48.690;9.016;2023-06-22T01:41:02;96196.97;;;19.18;100.00
706;BME280;21234;48.690;9.016;2023-06-22T01:43:32;96190.34;;;19.19;100.00
706;BME280;21234;48.690;9.016;2023-06-22T01:46:01;96193.09;;;19.19;100.00
706;BME280;21234;48.690;9.016;2023-06-22T01:48:29;96202.00;;;19.16;100.00
706;BME280;21234;48.690;9.016;2023-06-22T01:50:55;96206.81;;;19.10;100.00
706;BME280;21234;48.690;9.016;2023-06-22T01:53:22;96201.59;;;19.09;100.00
706;BME280;21234;48.690;9.016;2023-06-22T01:55:49;96195.88;;;19.05;100.00
706;BME280;21234;48.690;9.016;2023-06-22T01:58:16;96194.75;;;19.06;100.00
706;BME280;21234;48.690;9.016;2023-06-22T02:00:47;96212.63;;;19.09;100.00
706;BME280;21234;48.690;9.016;2023-06-22T02:03:19;96222.00;;;19.08;100.00
706;BME280;21234;48.690;9.016;2023-06-22T02:05:50;96218.63;;;19.11;100.00
706;BME280;21234;48.690;9.016;2023-06-22T02:08:20;96220.16;;;19.17;100.00
706;BME280;21234;48.690;9.016;2023-06-22T02:10:49;96210.75;;;19.18;100.00
706;BME280;21234;48.690;9.016;2023-06-22T02:13:17;96211.78;;;19.08;100.00
706;BME280;21234;48.690;9.016;2023-06-22T02:15:45;96215.88;;;18.97;100.00
706;BME280;21234;48.690;9.016;2023-06-22T02:18:13;96215.97;;;18.92;100.00
706;BME280;21234;48.690;9.016;2023-06-22T02:20:41;96208.00;;;18.91;100.00
706;BME280;21234;48.690;9.016;2023-06-22T02:23:08;96217.06;;;18.91;100.00
706;BME280;21234;48.690;9.016;2023-06-22T02:25:35;96207.91;;;18.96;100.00
706;BME280;21234;48.690;9.016;2023-06-22T02:28:03;96202.91;;;18.98;100.00
706;BME280;21234;48.690;9.016;2023-06-22T02:30:30;96194.34;;;18.99;100.00
706;BME280;21234;48.690;9.016;2023-06-22T02:32:57;96188.72;;;18.91;100.00
706;BME280;21234;48.690;9.016;2023-06-22T02:35:25;96184.53;;;18.79;100.00
706;BME280;21234;48.690;9.016;2023-06-22T02:37:53;96184.53;;;18.79;100.00
706;BME280;21234;48.690;9.016;2023-06-22T02:40:20;96179.84;;;18.80;100.00
706;BME280;21234;48.690;9.016;2023-06-22T02:42:47;96184.84;;;18.78;100.00
706;BME280;21234;48.690;9.016;2023-06-22T02:45:14;96178.81;;;18.76;100.00
706;BME280;21234;48.690;9.016;2023-06-22T02:47:40;96178.72;;;18.81;100.00
706;BME280;21234;48.690;9.016;2023-06-22T02:50:09;96171.16;;;18.87;100.00
706;BME280;21234;48.690;9.016;2023-06-22T02:52:36;96175.16;;;18.81;100.00
706;BME280;21234;48.690;9.016;2023-06-22T02:55:06;96170.16;;;18.83;100.00
706;BME280;21234;48.690;9.016;2023-06-22T02:57:33;96162.50;;;18.79;100.00
706;BME280;21234;48.690;9.016;2023-06-22T03:00:02;96165.88;;;18.76;100.00
706;BME280;21234;48.690;9.016;2023-06-22T03:02:32;96169.84;;;18.70;100.00
706;BME280;21234;48.690;9.016;2023-06-22T03:04:58;96173.50;;;18.66;100.00
706;BME280;21234;48.690;9.016;2023-06-22T03:07:26;96171.09;;;18.59;100.00
706;BME280;21234;48.690;9.016;2023-06-22T03:09:55;96168.75;;;18.53;100.00
706;BME280;21234;48.690;9.016;2023-06-22T03:12:23;96167.53;;;18.59;100.00
706;BME280;21234;48.690;9.016;2023-06-22T03:14:50;96175.53;;;18.60;100.00
706;BME280;21234;48.690;9.016;2023-06-22T03:17:17;96181.59;;;18.57;100.00
706;BME280;21234;48.690;9.016;2023-06-22T03:19:44;96175.41;;;18.52;100.00
706;BME280;21234;48.690;9.016;2023-06-22T03:22:11;96173.56;;;18.47;100.00
706;BME280;21234;48.690;9.016;2023-06-22T03:24:37;96169.91;;;18.52;100.00
706;BME280;21234;48.690;9.016;2023-06-22T03:27:05;96161.31;;;18.53;100.00
706;BME280;21234;48.690;9.016;2023-06-22T03:29:33;96150.00;;;18.55;100.00
706;BME280;21234;48.690;9.016;2023-06-22T03:32:00;96151.41;;;18.52;100.00
706;BME280;21234;48.690;9.016;2023-06-22T03:34:26;96154.06;;;18.43;100.00
706;BME280;21234;48.690;9.016;2023-06-22T03:36:53;96157.81;;;18.34;100.00
706;BME280;21234;48.690;9.016;2023-06-22T03:39:20;96161.75;;;18.28;100.00
706;BME280;21234;48.690;9.016;2023-06-22T03:41:46;96161.28;;;18.39;100.00
706;BME280;21234;48.690;9.016;2023-06-22T03:44:13;96157.44;;;18.40;100.00
706;BME280;21234;48.690;9.016;2023-06-22T03:46:41;96156.00;;;18.43;100.00
706;BME280;21234;48.690;9.016;2023-06-22T03:49:08;96157.25;;;18.51;100.00
706;BME280;21234;48.690;9.016;2023-06-22T03:51:34;96156.91;;;18.38;100.00
706;BME280;21234;48.690;9.016;2023-06-22T03:54:01;96150.25;;;18.26;100.00
706;BME280;21234;48.690;9.016;2023-06-22T03:56:28;96154.13;;;18.25;100.00
706;BME280;21234;48.690;9.016;2023-06-22T03:58:54;96142.94;;;18.35;100.00
706;BME280;21234;48.690;9.016;2023-06-22T04:01:21;96149.16;;;18.40;100.00
706;BME280;21234;48.690;9.016;2023-06-22T04:03:49;96151.00;;;18.45;100.00
706;BME280;21234;48.690;9.016;2023-06-22T04:06:16;96153.69;;;18.50;100.00
706;BME280;21234;48.690;9.016;2023-06-22T04:08:45;96141.56;;;18.51;100.00
706;BME280;21234;48.690;9.016;2023-06-22T04:11:13;96136.22;;;18.55;100.00
706;BME280;21234;48.690;9.016;2023-06-22T04:13:40;96144.19;;;18.56;100.00
706;BME280;21234;48.690;9.016;2023-06-22T04:16:06;96139.75;;;18.60;100.00
706;BME280;21234;48.690;9.016;2023-06-22T04:18:33;96141.94;;;18.58;100.00
706;BME280;21234;48.690;9.016;2023-06-22T04:21:02;96137.56;;;18.57;100.00
706;BME280;21234;48.690;9.016;2023-06-22T04:23:29;96139.66;;;18.65;100.00
706;BME280;21234;48.690;9.016;2023-06-22T04:25:55;96138.22;;;18.68;100.00
706;BME280;21234;48.690;9.016;2023-06-22T04:28:23;96132.63;;;18.73;100.00
706;BME280;21234;48.690;9.016;2023-06-22T04:30:50;96127.31;;;18.76;100.00
706;BME280;21234;48.690;9.016;2023-06-22T04:33:16;96126.41;;;18.81;100.00
706;BME280;21234;48.690;9.016;2023-06-22T04:35:45;96121.72;;;18.82;100.00
706;BME280;21234;48.690;9.016;2023-06-22T04:38:13;96125.66;;;18.89;100.00
706;BME280;21234;48.690;9.016;2023-06-22T04:40:40;96124.25;;;18.92;100.00
706;BME280;21234;48.690;9.016;2023-06-22T04:43:07;96124.16;;;18.97;100.00
706;BME280;21234;48.690;9.016;2023-06-22T04:45:35;96127.63;;;19.02;100.00
706;BME280;21234;48.690;9.016;2023-06-22T04:48:03;96124.44;;;19.09;100.00
706;BME280;21234;48.690;9.016;2023-06-22T04:50:30;96116.91;;;19.15;100.00
706;BME280;21234;48.690;9.016;2023-06-22T04:52:57;96119.81;;;19.18;100.00
706;BME280;21234;48.690;9.016;2023-06-22T04:55:25;96106.75;;;19.24;100.00
706;BME280;21234;48.690;9.016;2023-06-22T04:57:52;96114.00;;;19.33;100.00
706;BME280;21234;48.690;9.016;2023-06-22T05:00:19;96116.34;;;19.40;100.00
706;BME280;21234;48.690;9.016;2023-06-22T05:02:48;96118.66;;;19.46;100.00
706;BME280;21234;48.690;9.016;2023-06-22T05:05:15;96125.72;;;19.53;100.00
706;BME280;21234;48.690;9.016;2023-06-22T05:07:43;96114.13;;;19.64;100.00
706;BME280;21234;48.690;9.016;2023-06-22T05:10:11;96110.44;;;19.69;100.00
706;BME280;21234;48.690;9.016;2023-06-22T05:12:40;96108.09;;;19.76;100.00
706;BME280;21234;48.690;9.016;2023-06-22T05:15:08;96106.03;;;19.82;100.00
706;BME280;21234;48.690;9.016;2023-06-22T05:17:35;96097.03;;;19.98;100.00
706;BME280;21234;48.690;9.016;2023-06-22T05:20:03;96100.50;;;20.04;100.00
706;BME280;21234;48.690;9.016;2023-06-22T05:22:31;96096.66;;;20.13;100.00
706;BME280;21234;48.690;9.016;2023-06-22T05:24:58;96098.00;;;20.25;97.90
706;BME280;21234;48.690;9.016;2023-06-22T05:27:25;96084.28;;;20.33;96.91
706;BME280;21234;48.690;9.016;2023-06-22T05:29:53;96080.78;;;20.50;96.83
706;BME280;21234;48.690;9.016;2023-06-22T05:32:19;96086.69;;;20.57;94.06
706;BME280;21234;48.690;9.016;2023-06-22T05:34:46;96085.78;;;20.70;94.46
706;BME280;21234;48.690;9.016;2023-06-22T05:37:13;96083.69;;;20.76;92.79
706;BME280;21234;48.690;9.016;2023-06-22T05:39:40;96084.19;;;20.87;91.78
706;BME280;21234;48.690;9.016;2023-06-22T05:42:07;96091.53;;;20.91;91.07
706;BME280;21234;48.690;9.016;2023-06-22T05:44:34;96092.34;;;20.92;91.02
706;BME280;21234;48.690;9.016;2023-06-22T05:47:02;96089.59;;;21.00;90.85
706;BME280;21234;48.690;9.016;2023-06-22T05:49:29;96094.50;;;21.03;90.82
706;BME280;21234;48.690;9.016;2023-06-22T05:51:58;96100.84;;;21.04;90.77
706;BME280;21234;48.690;9.016;2023-06-22T05:54:25;96095.41;;;20.90;89.36
706;BME280;21234;48.690;9.016;2023-06-22T05:56:51;96093.78;;;20.89;89.29
706;BME280;21234;48.690;9.016;2023-06-22T05:59:18;96094.41;;;20.86;89.54
706;BME280;21234;48.690;9.016;2023-06-22T06:01:45;96097.19;;;20.86;88.45
706;BME280;21234;48.690;9.016;2023-06-22T06:04:16;96090.72;;;20.99;87.24
706;BME280;21234;48.690;9.016;2023-06-22T06:06:43;96093.03;;;21.14;88.03
706;BME280;21234;48.690;9.016;2023-06-22T06:09:10;96084.19;;;21.35;87.96
706;BME280;21234;48.690;9.016;2023-06-22T06:11:37;96091.50;;;21.57;85.74
706;BME280;21234;48.690;9.016;2023-06-22T06:14:04;96091.69;;;21.69;83.47
706;BME280;21234;48.690;9.016;2023-06-22T06:16:31;96088.25;;;21.89;82.49
706;BME280;21234;48.690;9.016;2023-06-22T06:18:58;96086.66;;;22.05;80.93
706;BME280;21234;48.690;9.016;2023-06-22T06:21:26;96082.38;;;22.25;80.78
706;BME280;21234;48.690;9.016;2023-06-22T06:23:53;96094.56;;;22.41;79.88
706;BME280;21234;48.690;9.016;2023-06-22T06:26:19;96090.06;;;22.66;77.67
706;BME280;21234;48.690;9.016;2023-06-22T06:28:55;96087.94;;;22.72;76.19
706;BME280;21234;48.690;9.016;2023-06-22T06:31:22;96093.94;;;22.74;76.19
706;BME280;21234;48.690;9.016;2023-06-22T06:33:48;96088.38;;;22.83;75.45
706;BME280;21234;48.690;9.016;2023-06-22T06:36:15;96095.84;;;22.91;74.35
706;BME280;21234;48.690;9.016;2023-06-22T06:38:43;96097.59;;;23.04;74.71
706;BME280;21234;48.690;9.016;2023-06-22T06:41:12;96101.22;;;23.25;74.03
706;BME280;21234;48.690;9.016;2023-06-22T06:43:39;96100.56;;;23.49;73.57
706;BME280;21234;48.690;9.016;2023-06-22T06:46:06;96095.31;;;23.56;71.48
706;BME280;21234;48.690;9.016;2023-06-22T06:48:32;96097.97;;;23.73;71.48
706;BME280;21234;48.690;9.016;2023-06-22T06:50:59;96097.88;;;23.82;70.82
706;BME280;21234;48.690;9.016;2023-06-22T06:53:26;96095.47;;;23.81;68.20
706;BME280;21234;48.690;9.016;2023-06-22T06:55:55;96087.81;;;23.98;69.20
706;BME280;21234;48.690;9.016;2023-06-22T06:58:22;96083.78;;;24.29;69.48
706;BME280;21234;48.690;9.016;2023-06-22T07:00:49;96088.88;;;24.27;68.14
706;BME280;21234;48.690;9.016;2023-06-22T07:03:15;96087.19;;;24.47;67.15
706;BME280;21234;48.690;9.016;2023-06-22T07:05:42;96080.69;;;24.42;66.07
706;BME280;21234;48.690;9.016;2023-06-22T07:08:09;96079.44;;;24.52;67.32
706;BME280;21234;48.690;9.016;2023-06-22T07:10:36;96068.81;;;24.66;67.80
706;BME280;21234;48.690;9.016;2023-06-22T07:13:04;96062.78;;;24.64;65.67
706;BME280;21234;48.690;9.016;2023-06-22T07:15:30;96067.31;;;24.81;65.15
706;BME280;21234;48.690;9.016;2023-06-22T07:17:57;96071.75;;;25.06;64.79
706;BME280;21234;48.690;9.016;2023-06-22T07:20:24;96058.31;;;25.21;63.95
706;BME280;21234;48.690;9.016;2023-06-22T07:22:51;96061.78;;;25.30;63.79
706;BME280;21234;48.690;9.016;2023-06-22T07:25:17;96052.13;;;25.52;64.18
706;BME280;21234;48.690;9.016;2023-06-22T07:27:46;96050.72;;;25.45;61.97
706;BME280;21234;48.690;9.016;2023-06-22T07:30:15;96044.47;;;25.36;61.82
706;BME280;21234;48.690;9.016;2023-06-22T07:32:41;96041.91;;;25.56;62.58
706;BME280;21234;48.690;9.016;2023-06-22T07:35:08;96036.19;;;25.76;60.96
706;BME280;21234;48.690;9.016;2023-06-22T07:37:36;96032.19;;;25.90;61.37
706;BME280;21234;48.690;9.016;2023-06-22T07:40:03;96025.28;;;25.99;61.18
706;BME280;21234;48.690;9.016;2023-06-22T07:42:31;96022.19;;;26.17;60.55
706;BME280;21234;48.690;9.016;2023-06-22T07:44:59;96016.25;;;26.46;60.80
706;BME280;21234;48.690;9.016;2023-06-22T07:47:28;96024.41;;;26.39;57.48
706;BME280;21234;48.690;9.016;2023-06-22T07:49:55;96018.00;;;26.23;57.26
706;BME280;21234;48.690;9.016;2023-06-22T07:52:23;96011.47;;;26.47;58.91
706;BME280;21234;48.690;9.016;2023-06-22T07:54:51;96020.06;;;26.26;57.17
706;BME280;21234;48.690;9.016;2023-06-22T07:57:18;96035.34;;;26.32;57.78
706;BME280;21234;48.690;9.016;2023-06-22T07:59:45;96052.88;;;26.32;57.81
706;BME280;21234;48.690;9.016;2023-06-22T08:02:11;96062.66;;;26.54;57.73
706;BME280;21234;48.690;9.016;2023-06-22T08:04:40;96065.50;;;26.42;56.46
706;BME280;21234;48.690;9.016;2023-06-22T08:07:07;96076.69;;;26.73;57.19
706;BME280;21234;48.690;9.016;2023-06-22T08:09:35;96074.28;;;26.88;56.83
706;BME280;21234;48.690;9.016;2023-06-22T08:12:02;96085.56;;;26.48;57.63
706;BME280;21234;48.690;9.016;2023-06-22T08:14:29;96088.75;;;26.34;58.81
706;BME280;21234;48.690;9.016;2023-06-22T08:16:56;96097.16;;;26.22;59.11
706;BME280;21234;48.690;9.016;2023-06-22T08:19:23;96094.16;;;26.15;59.90
706;BME280;21234;48.690;9.016;2023-06-22T08:21:51;96095.09;;;26.19;60.67
706;BME280;21234;48.690;9.016;2023-06-22T08:24:18;96104.69;;;25.93;61.07
706;BME280;21234;48.690;9.016;2023-06-22T08:26:45;96099.84;;;26.18;62.47
706;BME280;21234;48.690;9.016;2023-06-22T08:29:11;96109.94;;;26.51;58.64
706;BME280;21234;48.690;9.016;2023-06-22T08:31:38;96098.44;;;26.24;60.23
706;BME280;21234;48.690;9.016;2023-06-22T08:34:05;96103.72;;;26.01;61.42
706;BME280;21234;48.690;9.016;2023-06-22T08:36:31;96084.66;;;25.75;61.66
706;BME280;21234;48.690;9.016;2023-06-22T08:39:04;96075.59;;;26.19;61.66
706;BME280;21234;48.690;9.016;2023-06-22T08:41:31;96076.69;;;26.30;61.01
706;BME280;21234;48.690;9.016;2023-06-22T08:43:57;96083.97;;;26.06;61.06
706;BME280;21234;48.690;9.016;2023-06-22T08:46:24;96083.41;;;26.01;62.81
706;BME280;21234;48.690;9.016;2023-06-22T08:48:55;96077.94;;;26.04;63.17
706;BME280;21234;48.690;9.016;2023-06-22T08:51:23;96072.44;;;26.20;61.69
706;BME280;21234;48.690;9.016;2023-06-22T08:53:49;96070.13;;;26.22;62.36
706;BME280;21234;48.690;9.016;2023-06-22T08:56:18;96071.81;;;26.70;63.47
706;BME280;21234;48.690;9.016;2023-06-22T08:58:44;96061.16;;;27.04;58.34
706;BME280;21234;48.690;9.016;2023-06-22T09:01:11;96069.25;;;27.09;59.71
706;BME280;21234;48.690;9.016;2023-06-22T09:03:38;96085.53;;;27.07;58.51
706;BME280;21234;48.690;9.016;2023-06-22T09:06:05;96082.38;;;27.08;58.59
706;BME280;21234;48.690;9.016;2023-06-22T09:08:32;96092.75;;;27.24;58.34
706;BME280;21234;48.690;9.016;2023-06-22T09:10:58;96079.41;;;27.68;59.02
706;BME280;21234;48.690;9.016;2023-06-22T09:13:29;96076.44;;;28.15;56.34
706;BME280;21234;48.690;9.016;2023-06-22T09:15:56;96075.84;;;28.06;54.89
706;BME280;21234;48.690;9.016;2023-06-22T09:18:23;96071.75;;;28.19;55.90
706;BME280;21234;48.690;9.016;2023-06-22T09:20:50;96064.16;;;28.39;55.62
706;BME280;21234;48.690;9.016;2023-06-22T09:23:17;96057.53;;;28.47;54.51
706;BME280;21234;48.690;9.016;2023-06-22T09:25:43;96056.13;;;28.57;52.69
706;BME280;21234;48.690;9.016;2023-06-22T09:28:12;96050.34;;;28.46;52.46
706;BME280;21234;48.690;9.016;2023-06-22T09:30:42;96052.38;;;28.49;52.61
706;BME280;21234;48.690;9.016;2023-06-22T09:33:09;96049.16;;;28.70;51.92
706;BME280;21234;48.690;9.016;2023-06-22T09:35:35;96047.91;;;28.87;53.22
706;BME280;21234;48.690;9.016;2023-06-22T09:38:02;96043.75;;;28.81;51.95
706;BME280;21234;48.690;9.016;2023-06-22T09:40:29;96032.00;;;28.71;53.46
706;BME280;21234;48.690;9.016;2023-06-22T09:42:58;96024.44;;;28.72;53.25
706;BME280;21234;48.690;9.016;2023-06-22T09:45:24;96010.81;;;28.70;52.31
706;BME280;21234;48.690;9.016;2023-06-22T09:47:52;95997.94;;;28.66;52.30
706;BME280;21234;48.690;9.016;2023-06-22T09:50:19;96001.44;;;29.05;51.46
706;BME280;21234;48.690;9.016;2023-06-22T09:52:46;96002.22;;;29.05;51.04
706;BME280;21234;48.690;9.016;2023-06-22T09:55:16;95997.50;;;29.09;50.21
706;BME280;21234;48.690;9.016;2023-06-22T09:57:42;95988.19;;;28.79;52.68
706;BME280;21234;48.690;9.016;2023-06-22T10:00:10;95997.72;;;28.52;52.90
706;BME280;21234;48.690;9.016;2023-06-22T10:02:38;95995.03;;;28.36;53.33
706;BME280;21234;48.690;9.016;2023-06-22T10:05:07;95993.59;;;28.23;53.09
706;BME280;21234;48.690;9.016;2023-06-22T10:07:34;95985.66;;;28.25;55.55
706;BME280;21234;48.690;9.016;2023-06-22T10:10:06;95996.03;;;28.24;53.51
706;BME280;21234;48.690;9.016;2023-06-22T10:12:32;95991.66;;;28.27;53.39
706;BME280;21234;48.690;9.016;2023-06-22T10:14:59;95985.03;;;28.35;53.41
706;BME280;21234;48.690;9.016;2023-06-22T10:17:26;95979.75;;;28.53;53.66
706;BME280;21234;48.690;9.016;2023-06-22T10:19:53;95974.59;;;28.55;52.36
706;BME280;21234;48.690;9.016;2023-06-22T10:22:21;95961.94;;;28.84;53.42
706;BME280;21234;48.690;9.016;2023-06-22T10:24:47;95971.13;;;29.11;51.61
706;BME280;21234;48.690;9.016;2023-06-22T10:27:14;95973.63;;;29.16;51.16
706;BME280;21234;48.690;9.016;2023-06-22T10:29:41;95976.63;;;29.03;51.78
706;BME280;21234;48.690;9.016;2023-06-22T10:32:08;95974.91;;;28.72;51.90
706;BME280;21234;48.690;9.016;2023-06-22T10:34:35;95974.19;;;29.02;52.85
706;BME280;21234;48.690;9.016;2023-06-22T10:37:02;95966.03;;;29.42;52.04
706;BME280;21234;48.690;9.016;2023-06-22T10:39:30;95964.13;;;29.50;48.40
706;BME280;21234;48.690;9.016;2023-06-22T10:41:56;95957.09;;;29.37;47.68
706;BME280;21234;48.690;9.016;2023-06-22T10:44:23;95960.06;;;29.18;49.42
706;BME280;21234;48.690;9.016;2023-06-22T10:46:50;95953.16;;;29.12;50.63
706;BME280;21234;48.690;9.016;2023-06-22T10:49:16;95965.59;;;29.14;52.46
706;BME280;21234;48.690;9.016;2023-06-22T10:51:43;95965.50;;;29.37;50.95
706;BME280;21234;48.690;9.016;2023-06-22T10:54:10;95966.75;;;29.39;50.79
706;BME280;21234;48.690;9.016;2023-06-22T10:56:40;95960.81;;;29.41;50.61
706;BME280;21234;48.690;9.016;2023-06-22T10:59:07;95958.72;;;29.38;49.94
706;BME280;21234;48.690;9.016;2023-06-22T11:01:33;95959.28;;;29.21;51.49
706;BME280;21234;48.690;9.016;2023-06-22T11:04:00;95964.56;;;28.99;51.71
706;BME280;21234;48.690;9.016;2023-06-22T11:06:27;95963.53;;;28.85;53.01
706;BME280;21234;48.690;9.016;2023-06-22T11:08:54;95959.94;;;28.84;53.14
706;BME280;21234;48.690;9.016;2023-06-22T11:11:20;95969.94;;;28.85;53.04
706;BME280;21234;48.690;9.016;2023-06-22T11:13:49;95957.81;;;28.77;51.93
706;BME280;21234;48.690;9.016;2023-06-22T11:16:15;95972.03;;;28.69;52.28
706;BME280;21234;48.690;9.016;2023-06-22T11:18:42;95960.69;;;28.58;53.09
706;BME280;21234;48.690;9.016;2023-06-22T11:21:09;95958.63;;;28.55;52.80
706;BME280;21234;48.690;9.016;2023-06-22T11:23:35;95945.66;;;28.43;51.96
706;BME280;21234;48.690;9.016;2023-06-22T11:26:02;95947.94;;;28.38;52.88
706;BME280;21234;48.690;9.016;2023-06-22T11:28:29;95946.22;;;28.53;53.44
706;BME280;21234;48.690;9.016;2023-06-22T11:30:57;95937.84;;;28.79;52.69
706;BME280;21234;48.690;9.016;2023-06-22T11:33:24;95945.28;;;28.94;51.61
706;BME280;21234;48.690;9.016;2023-06-22T11:35:51;95946.31;;;28.83;52.06
706;BME280;21234;48.690;9.016;2023-06-22T11:38:17;95945.34;;;28.98;52.19
706;BME280;21234;48.690;9.016;2023-06-22T11:40:44;95946.53;;;28.97;50.79
706;BME280;21234;48.690;9.016;2023-06-22T11:43:11;95944.41;;;28.87;51.86
706;BME280;21234;48.690;9.016;2023-06-22T11:45:37;95942.19;;;28.76;51.20
706;BME280;21234;48.690;9.016;2023-06-22T11:48:06;95941.38;;;28.76;50.95
706;BME280;21234;48.690;9.016;2023-06-22T11:50:32;95950.41;;;28.66;52.42
706;BME280;21234;48.690;9.016;2023-06-22T11:53:01;95960.13;;;28.49;52.44
706;BME280;21234;48.690;9.016;2023-06-22T11:55:28;95969.25;;;28.46;52.79
706;BME280;21234;48.690;9.016;2023-06-22T11:57:57;95975.41;;;28.55;53.99
706;BME280;21234;48.690;9.016;2023-06-22T12:00:28;95989.69;;;28.50;53.37
706;BME280;21234;48.690;9.016;2023-06-22T12:02:55;95984.78;;;28.43;53.74
706;BME280;21234;48.690;9.016;2023-06-22T12:05:23;95981.94;;;28.40;53.48
706;BME280;21234;48.690;9.016;2023-06-22T12:07:52;95968.50;;;28.26;54.02
706;BME280;21234;48.690;9.016;2023-06-22T12:10:20;95971.16;;;28.19;55.11
706;BME280;21234;48.690;9.016;2023-06-22T12:12:47;95965.91;;;28.18;55.17
706;BME280;21234;48.690;9.016;2023-06-22T12:15:13;95962.31;;;28.17;53.99
706;BME280;21234;48.690;9.016;2023-06-22T12:17:40;95954.03;;;28.21;53.83
706;BME280;21234;48.690;9.016;2023-06-22T12:20:09;95945.72;;;28.24;55.06
706;BME280;21234;48.690;9.016;2023-06-22T12:22:37;95956.00;;;28.20;54.17
706;BME280;21234;48.690;9.016;2023-06-22T12:25:05;95979.81;;;28.14;53.53
706;BME280;21234;48.690;9.016;2023-06-22T12:27:33;95989.25;;;28.06;55.16
706;BME280;21234;48.690;9.016;2023-06-22T12:30:01;95995.78;;;27.94;55.35
706;BME280;21234;48.690;9.016;2023-06-22T12:32:28;95994.50;;;27.88;57.03
706;BME280;21234;48.690;9.016;2023-06-22T12:34:56;95978.91;;;27.87;58.51
706;BME280;21234;48.690;9.016;2023-06-22T12:37:23;95972.50;;;27.87;58.17
706;BME280;21234;48.690;9.016;2023-06-22T12:39:53;95978.97;;;27.91;57.68
706;BME280;21234;48.690;9.016;2023-06-22T12:42:19;95984.88;;;27.86;58.77
706;BME280;21234;48.690;9.016;2023-06-22T12:44:46;95989.56;;;27.82;57.91
706;BME280;21234;48.690;9.016;2023-06-22T12:47:13;96000.66;;;27.78;57.96
706;BME280;21234;48.690;9.016;2023-06-22T12:49:39;96004.47;;;27.70;58.28
706;BME280;21234;48.690;9.016;2023-06-22T12:52:09;96009.47;;;27.61;58.79
706;BME280;21234;48.690;9.016;2023-06-22T12:54:36;96020.75;;;27.49;59.88
706;BME280;21234;48.690;9.016;2023-06-22T12:57:05;96019.03;;;27.44;60.81
706;BME280;21234;48.690;9.016;2023-06-22T12:59:32;96010.41;;;27.33;60.91
706;BME280;21234;48.690;9.016;2023-06-22T13:01:59;95995.88;;;27.24;61.24
706;BME280;21234;48.690;9.016;2023-06-22T13:04:25;95993.47;;;27.23;61.31
706;BME280;21234;48.690;9.016;2023-06-22T13:06:52;95984.28;;;27.22;61.86
706;BME280;21234;48.690;9.016;2023-06-22T13:09:19;95974.72;;;27.23;61.12
706;BME280;21234;48.690;9.016;2023-06-22T13:11:46;95964.88;;;27.29;60.98
706;BME280;21234;48.690;9.016;2023-06-22T13:14:14;95954.75;;;27.40;60.88
706;BME280;21234;48.690;9.016;2023-06-22T13:16:41;95961.47;;;27.55;58.92
706;BME280;21234;48.690;9.016;2023-06-22T13:19:08;95960.16;;;27.68;58.40